createdAt,value
2023-02-14T00:02:23.351Z,102630.28
2023-02-14T00:04:49.931Z,102624.34
2023-02-14T00:07:16.517Z,102621.81
2023-02-14T00:09:43.021Z,102623.75
2023-02-14T00:12:09.595Z,102618.44
2023-02-14T00:14:54.588Z,102623.16
2023-02-14T00:17:21.114Z,102615.31
2023-02-14T00:19:47.663Z,102617.28
2023-02-14T00:22:14.288Z,102615.59
2023-02-14T00:24:40.843Z,102611.22
2023-02-14T00:27:07.426Z,102612.47
2023-02-14T00:29:34.495Z,102611.63
2023-02-14T00:32:01.517Z,102622.41
2023-02-14T00:34:28.335Z,102608.50
2023-02-14T00:36:54.817Z,102621.28
2023-02-14T00:39:21.325Z,102623.63
2023-02-14T00:41:47.931Z,102630.19
2023-02-14T00:44:14.529Z,102626.09
2023-02-14T00:46:41.809Z,102628.19
2023-02-14T00:49:08.789Z,102613.41
2023-02-14T00:51:35.493Z,102621.53
2023-02-14T00:54:02.266Z,102621.81
2023-02-14T00:56:28.893Z,102623.38
2023-02-14T00:58:55.397Z,102631.00
2023-02-14T01:01:22.255Z,102630.56
2023-02-14T01:03:48.692Z,102626.81
2023-02-14T01:06:16.035Z,102623.91
2023-02-14T01:08:42.781Z,102634.19
2023-02-14T01:11:13.981Z,102635.84
2023-02-14T01:13:41.005Z,102636.25
2023-02-14T01:16:09.588Z,102630.59
2023-02-14T01:18:37.064Z,102629.28
2023-02-14T01:21:14.465Z,102630.72
2023-02-14T01:23:41.172Z,102626.69
2023-02-14T01:26:08.757Z,102629.66
2023-02-14T01:28:35.836Z,102630.88
2023-02-14T01:31:07.801Z,102634.28
2023-02-14T01:33:34.497Z,102625.09
2023-02-14T01:36:01.022Z,102641.03
2023-02-14T01:38:27.566Z,102632.50
2023-02-14T01:40:54.043Z,102636.81
2023-02-14T01:43:20.569Z,102632.59
2023-02-14T01:45:47.211Z,102633.59
2023-02-14T01:48:15.335Z,102642.53
2023-02-14T01:50:44.945Z,102640.81
2023-02-14T01:53:21.330Z,102633.81
2023-02-14T01:55:56.931Z,102632.97
2023-02-14T01:58:27.325Z,102631.41
2023-02-14T02:01:00.222Z,102623.91
2023-02-14T02:03:32.661Z,102634.31
2023-02-14T02:06:14.052Z,102628.75
2023-02-14T02:08:47.970Z,102616.94
2023-02-14T02:11:14.480Z,102615.50
2023-02-14T02:13:40.967Z,102610.19
2023-02-14T02:16:33.521Z,102610.53
2023-02-14T02:19:08.898Z,102603.75
2023-02-14T02:21:54.209Z,102607.63
2023-02-14T02:24:26.361Z,102598.41
2023-02-14T02:27:28.284Z,102600.50
2023-02-14T02:29:57.430Z,102593.97
2023-02-14T02:32:29.621Z,102587.22
2023-02-14T02:35:05.641Z,102587.78
2023-02-14T02:38:05.356Z,102585.38
2023-02-14T02:41:04.076Z,102588.13
2023-02-14T02:43:55.366Z,102584.78
2023-02-14T02:46:48.516Z,102574.63
2023-02-14T02:49:50.463Z,102576.19
2023-02-14T02:52:56.586Z,102574.75
2023-02-14T02:55:30.461Z,102573.19
2023-02-14T02:57:57.518Z,102577.94
2023-02-14T03:00:25.087Z,102580.69
2023-02-14T03:03:27.709Z,102580.69
2023-02-14T03:05:54.605Z,102573.69
2023-02-14T03:08:21.134Z,102568.59
2023-02-14T03:10:47.670Z,102565.94
2023-02-14T03:13:42.156Z,102574.28
2023-02-14T03:16:28.716Z,102568.97
2023-02-14T03:19:18.437Z,102573.44
2023-02-14T03:22:10.680Z,102573.69
2023-02-14T03:25:01.810Z,102562.22
2023-02-14T03:27:50.053Z,102561.84
2023-02-14T03:30:45.724Z,102570.56
2023-02-14T03:33:38.842Z,102565.81
2023-02-14T03:36:31.717Z,102559.94
2023-02-14T03:39:22.848Z,102558.38
2023-02-14T03:41:55.142Z,102548.47
2023-02-14T03:44:25.914Z,102540.84
2023-02-14T03:46:58.098Z,102541.84
2023-02-14T03:49:29.823Z,102541.84
2023-02-14T03:51:58.656Z,102540.38
2023-02-14T03:54:27.214Z,102534.38
2023-02-14T03:57:01.524Z,102528.22
2023-02-14T03:59:29.324Z,102524.34
2023-02-14T04:02:08.849Z,102526.66
2023-02-14T04:04:40.621Z,102525.31
2023-02-14T04:07:22.289Z,102519.03
2023-02-14T04:09:49.546Z,102518.94
2023-02-14T04:12:21.733Z,102523.50
2023-02-14T04:14:50.469Z,102530.91
2023-02-14T04:17:35.299Z,102530.16
2023-02-14T04:20:01.780Z,102528.59
2023-02-14T04:22:28.306Z,102519.88
2023-02-14T04:24:54.753Z,102518.34
2023-02-14T04:27:21.301Z,102515.09
2023-02-14T04:29:49.903Z,102521.34
2023-02-14T04:32:20.336Z,102524.13
2023-02-14T04:34:47.057Z,102526.44
2023-02-14T04:37:15.561Z,102528.34
2023-02-14T04:39:42.020Z,102529.44
2023-02-14T04:42:09.342Z,102529.56
2023-02-14T04:44:38.212Z,102524.50
2023-02-14T04:47:05.914Z,102527.41
2023-02-14T04:49:32.932Z,102526.66
2023-02-14T04:51:59.914Z,102525.97
2023-02-14T04:54:26.525Z,102530.41
2023-02-14T04:56:53.221Z,102523.41
2023-02-14T04:59:19.848Z,102533.19
2023-02-14T05:01:46.402Z,102533.19
2023-02-14T05:04:12.944Z,102529.78
2023-02-14T05:06:39.426Z,102529.78
2023-02-14T05:09:06.211Z,102528.84
2023-02-14T05:11:32.719Z,102520.88
2023-02-14T05:13:59.323Z,102528.22
2023-02-14T05:16:26.016Z,102526.44
2023-02-14T05:18:52.510Z,102517.34
2023-02-14T05:21:19.028Z,102515.19
2023-02-14T05:23:45.693Z,102518.50
2023-02-14T05:26:12.240Z,102511.31
2023-02-14T05:28:41.087Z,102515.94
2023-02-14T05:31:09.075Z,102510.44
2023-02-14T05:33:35.964Z,102504.47
2023-02-14T05:36:02.843Z,102506.28
2023-02-14T05:38:30.658Z,102507.75
2023-02-14T05:40:57.387Z,102501.03
2023-02-14T05:43:23.949Z,102502.34
2023-02-14T05:45:50.556Z,102510.78
2023-02-14T05:48:18.018Z,102514.19
2023-02-14T05:50:45.631Z,102516.22
2023-02-14T05:53:12.626Z,102517.19
2023-02-14T05:55:39.274Z,102516.22
2023-02-14T05:58:06.087Z,102515.22
2023-02-14T06:00:32.564Z,102515.84
2023-02-14T06:02:59.053Z,102519.25
2023-02-14T06:05:25.735Z,102513.06
2023-02-14T06:07:52.365Z,102514.53
2023-02-14T06:10:23.308Z,102513.41
2023-02-14T06:12:51.602Z,102510.06
2023-02-14T06:15:18.241Z,102515.72
2023-02-14T06:17:44.889Z,102513.53
2023-02-14T06:20:11.880Z,102511.31
2023-02-14T06:22:39.327Z,102520.31
2023-02-14T06:25:06.523Z,102517.06
2023-02-14T06:27:33.245Z,102510.13
2023-02-14T06:30:00.435Z,102509.75
2023-02-14T06:32:27.030Z,102505.53
2023-02-14T06:34:53.614Z,102506.06
2023-02-14T06:37:20.290Z,102516.22
2023-02-14T06:39:46.865Z,102513.47
2023-02-14T06:42:13.387Z,102518.38
2023-02-14T06:44:39.856Z,102526.16
2023-02-14T06:47:06.400Z,102526.03
2023-02-14T06:49:32.869Z,102524.22
2023-02-14T06:51:59.389Z,102530.44
2023-02-14T06:54:25.929Z,102529.56
2023-02-14T06:56:52.445Z,102530.94
2023-02-14T06:59:18.949Z,102537.53
2023-02-14T07:01:45.517Z,102541.28
2023-02-14T07:04:12.112Z,102532.56
2023-02-14T07:06:38.861Z,102531.41
2023-02-14T07:09:05.687Z,102524.44
2023-02-14T07:11:32.190Z,102536.84
2023-02-14T07:13:58.715Z,102531.31
2023-02-14T07:16:25.286Z,102533.56
2023-02-14T07:18:51.793Z,102536.63
2023-02-14T07:21:18.300Z,102541.13
2023-02-14T07:23:47.809Z,102532.41
2023-02-14T07:26:18.222Z,102533.38
2023-02-14T07:28:45.631Z,102529.88
2023-02-14T07:31:12.630Z,102529.47
2023-02-14T07:33:39.218Z,102524.84
2023-02-14T07:36:07.184Z,102527.97
2023-02-14T07:38:34.508Z,102522.38
2023-02-14T07:41:01.719Z,102520.13
2023-02-14T07:43:28.727Z,102524.09
2023-02-14T07:45:55.197Z,102520.81
2023-02-14T07:48:22.138Z,102525.53
2023-02-14T07:50:48.772Z,102522.31
2023-02-14T07:53:15.299Z,102520.94
2023-02-14T07:55:41.821Z,102521.25
2023-02-14T07:58:08.328Z,102515.47
2023-02-14T08:00:34.944Z,102516.63
2023-02-14T08:03:01.562Z,102516.94
2023-02-14T08:05:28.191Z,102512.72
2023-02-14T08:07:54.728Z,102523.38
2023-02-14T08:10:21.256Z,102520.75
2023-02-14T08:13:00.090Z,102517.09
2023-02-14T08:15:50.073Z,102526.63
2023-02-14T08:18:18.374Z,102524.50
2023-02-14T08:20:49.956Z,102521.25
2023-02-14T08:23:17.263Z,102521.09
2023-02-14T08:25:43.801Z,102516.28
2023-02-14T08:28:10.625Z,102520.19
2023-02-14T08:30:38.166Z,102515.59
2023-02-14T08:33:05.376Z,102521.63
2023-02-14T08:35:31.880Z,102514.09
2023-02-14T08:37:58.484Z,102514.31
2023-02-14T08:40:25.305Z,102522.69
2023-02-14T08:42:51.825Z,102514.28
2023-02-14T08:45:18.477Z,102516.81
2023-02-14T08:47:45.004Z,102512.63
2023-02-14T08:50:14.574Z,102512.75
2023-02-14T08:52:43.366Z,102521.22
2023-02-14T08:55:11.658Z,102512.97
2023-02-14T08:57:38.512Z,102507.50
2023-02-14T09:00:07.313Z,102512.81
2023-02-14T09:02:34.561Z,102509.31
2023-02-14T09:05:02.106Z,102509.50
2023-02-14T09:07:28.617Z,102510.59
2023-02-14T09:09:55.165Z,102507.94
2023-02-14T09:12:21.972Z,102509.66
2023-02-14T09:14:48.401Z,102505.25
2023-02-14T09:17:15.796Z,102498.00
2023-02-14T09:19:42.440Z,102497.38
2023-02-14T09:22:10.955Z,102496.41
2023-02-14T09:24:39.066Z,102503.13
2023-02-14T09:27:06.294Z,102490.91
2023-02-14T09:29:33.773Z,102489.41
2023-02-14T09:32:02.195Z,102502.34
2023-02-14T09:34:30.075Z,102489.13
2023-02-14T09:37:15.412Z,102487.78
2023-02-14T09:39:41.951Z,102487.97
2023-02-14T09:42:48.484Z,102496.19
2023-02-14T09:45:20.412Z,102489.84
2023-02-14T09:47:52.251Z,102492.69
2023-02-14T09:50:30.696Z,102485.16
2023-02-14T10:01:15.488Z,102473.41
2023-02-14T10:04:39.873Z,102474.06
2023-02-14T10:07:21.613Z,102487.97
2023-02-14T10:10:06.176Z,102484.38
2023-02-14T10:12:40.302Z,102476.59
2023-02-14T10:15:15.898Z,102476.88
2023-02-14T10:17:47.087Z,102479.84
2023-02-14T10:20:34.740Z,102482.63
2023-02-14T10:23:16.524Z,102468.59
2023-02-14T10:25:48.790Z,102475.63
2023-02-14T10:28:22.767Z,102470.81
2023-02-14T10:31:02.566Z,102475.63
2023-02-14T10:33:33.339Z,102466.63
2023-02-14T10:36:05.773Z,102462.47
2023-02-14T10:38:49.169Z,102462.72
2023-02-14T10:41:34.240Z,102467.69
2023-02-14T10:44:20.602Z,102467.88
2023-02-14T10:47:10.166Z,102458.97
2023-02-14T10:49:46.924Z,102460.59
2023-02-14T10:52:16.377Z,102455.38
2023-02-14T10:54:50.655Z,102453.50
2023-02-14T10:57:26.059Z,102450.63
2023-02-14T11:00:00.962Z,102450.19
2023-02-14T11:02:41.390Z,102439.81
2023-02-14T11:05:18.946Z,102433.25
2023-02-14T11:07:45.395Z,102428.00
2023-02-14T11:10:14.646Z,102430.22
2023-02-14T11:12:41.914Z,102426.78
2023-02-14T11:15:11.841Z,102424.19
2023-02-14T11:17:38.349Z,102425.72
2023-02-14T11:20:22.576Z,102407.56
2023-02-14T11:22:50.205Z,102412.75
2023-02-14T11:25:22.804Z,102412.59
2023-02-14T11:27:56.634Z,102412.41
2023-02-14T11:30:39.120Z,102410.34
2023-02-14T11:33:09.377Z,102407.00
2023-02-14T11:35:37.061Z,102403.47
2023-02-14T11:38:21.967Z,102397.44
2023-02-14T11:40:55.430Z,102400.59
2023-02-14T11:43:35.308Z,102388.78
2023-02-14T11:46:28.074Z,102390.31
2023-02-14T11:48:57.449Z,102388.28
2023-02-14T11:51:34.096Z,102387.31
2023-02-14T11:54:05.043Z,102379.44
2023-02-14T11:56:48.851Z,102374.31
2023-02-14T11:59:37.038Z,102373.31
2023-02-14T12:02:38.167Z,102361.47
2023-02-14T12:05:20.693Z,102375.63
2023-02-14T12:07:52.718Z,102361.50
2023-02-14T12:10:27.347Z,102356.28
2023-02-14T12:13:08.942Z,102360.50
2023-02-14T12:15:49.162Z,102352.97
2023-02-14T12:18:34.566Z,102349.22
2023-02-14T12:21:12.953Z,102352.34
2023-02-14T12:23:50.869Z,102360.03
2023-02-14T12:26:33.078Z,102337.91
2023-02-14T12:29:12.233Z,102338.72
2023-02-14T12:31:38.874Z,102341.19
2023-02-14T12:34:05.847Z,102327.38
2023-02-14T12:37:02.137Z,102318.78
2023-02-14T12:39:51.550Z,102315.00
2023-02-14T12:42:26.827Z,102312.25
2023-02-14T12:45:02.585Z,102314.72
2023-02-14T12:47:48.362Z,102298.94
2023-02-14T12:50:43.919Z,102303.72
2023-02-14T12:53:45.408Z,102306.53
2023-02-14T12:56:18.323Z,102293.94
2023-02-14T12:58:57.138Z,102291.78
2023-02-14T13:01:38.880Z,102276.84
2023-02-14T13:04:45.176Z,102282.91
2023-02-14T13:07:45.160Z,102281.50
2023-02-14T13:10:19.546Z,102276.22
2023-02-14T13:13:02.819Z,102273.38
2023-02-14T13:15:38.408Z,102278.97
2023-02-14T13:18:07.812Z,102263.63
2023-02-14T13:20:42.959Z,102252.41
2023-02-14T13:23:34.894Z,102251.97
2023-02-14T13:26:05.654Z,102246.09
2023-02-14T13:28:33.784Z,102241.09
2023-02-14T13:31:01.941Z,102243.38
2023-02-14T13:33:35.241Z,102237.03
2023-02-14T13:36:06.120Z,102238.22
2023-02-14T13:38:32.946Z,102234.81
2023-02-14T13:41:01.797Z,102232.00
2023-02-14T13:44:08.190Z,102232.31
2023-02-14T13:46:34.651Z,102225.91
2023-02-14T13:49:07.867Z,102216.13
2023-02-14T13:51:48.871Z,102221.00
2023-02-14T13:54:33.596Z,102217.25
2023-02-14T13:57:01.816Z,102219.25
2023-02-14T13:59:37.319Z,102220.13
2023-02-14T14:02:43.264Z,102221.94
2023-02-14T14:05:32.515Z,102216.25
2023-02-14T14:08:31.970Z,102214.25
2023-02-14T14:11:32.334Z,102217.31
2023-02-14T14:14:20.654Z,102205.94
2023-02-14T14:16:58.763Z,102211.03
2023-02-14T14:19:25.165Z,102206.19
2023-02-14T14:22:02.324Z,102200.25
2023-02-14T14:24:31.174Z,102207.59
2023-02-14T14:27:29.856Z,102202.38
2023-02-14T14:30:05.454Z,102199.06
2023-02-14T14:32:37.314Z,102202.13
2023-02-14T14:35:08.360Z,102191.69
2023-02-14T14:37:37.246Z,102192.13
2023-02-14T14:40:07.083Z,102190.94
2023-02-14T14:42:39.206Z,102188.44
2023-02-14T14:45:21.673Z,102179.56
2023-02-14T14:47:49.033Z,102180.97
2023-02-14T14:50:19.772Z,102180.50
2023-02-14T14:52:49.024Z,102177.16
2023-02-14T14:55:24.310Z,102176.59
2023-02-14T14:57:57.122Z,102174.09
2023-02-14T15:00:29.495Z,102176.59
2023-02-14T15:02:57.401Z,102169.13
2023-02-14T15:05:34.163Z,102168.06
2023-02-14T15:08:33.077Z,102161.81
2023-02-14T15:11:10.427Z,102159.16
2023-02-14T15:13:49.918Z,102161.28
2023-02-14T15:16:19.256Z,102159.50
2023-02-14T15:18:46.260Z,102153.47
2023-02-14T15:21:13.450Z,102157.25
2023-02-14T15:23:44.038Z,102153.00
2023-02-14T15:26:18.360Z,102149.34
2023-02-14T15:28:53.615Z,102152.19
2023-02-14T15:31:20.362Z,102146.94
2023-02-14T15:33:47.054Z,102146.34
2023-02-14T15:36:20.426Z,102143.38
2023-02-14T15:38:47.419Z,102134.72
2023-02-14T15:41:14.471Z,102131.88
2023-02-14T15:43:41.345Z,102148.91
2023-02-14T15:46:29.018Z,102143.22
2023-02-14T15:48:58.735Z,102142.38
2023-02-14T15:51:29.257Z,102150.03
2023-02-14T15:54:02.668Z,102142.44
2023-02-14T15:56:32.370Z,102138.84
2023-02-14T15:59:02.614Z,102137.47
2023-02-14T16:01:31.520Z,102132.22
2023-02-14T16:04:01.810Z,102143.44
2023-02-14T16:06:44.677Z,102140.56
2023-02-14T16:09:27.911Z,102146.06
2023-02-14T16:11:54.948Z,102135.13
2023-02-14T16:14:36.345Z,102141.00
2023-02-14T16:17:11.720Z,102141.88
2023-02-14T16:19:46.021Z,102134.50
2023-02-14T16:22:24.954Z,102131.53
2023-02-14T16:24:51.413Z,102129.28
2023-02-14T16:27:17.913Z,102129.41
2023-02-14T16:29:44.277Z,102128.81
2023-02-14T16:32:20.791Z,102130.41
2023-02-14T16:34:48.397Z,102133.06
2023-02-14T16:37:22.367Z,102142.31
2023-02-14T16:39:53.975Z,102145.25
2023-02-14T16:42:20.589Z,102150.53
2023-02-14T16:44:48.030Z,102148.00
2023-02-14T16:47:16.088Z,102149.09
2023-02-14T16:49:42.632Z,102149.50
2023-02-14T16:52:23.885Z,102142.63
2023-02-14T16:54:50.656Z,102148.63
2023-02-14T16:57:20.093Z,102148.06
2023-02-14T16:59:47.251Z,102141.09
2023-02-14T17:02:14.343Z,102145.63
2023-02-14T17:04:40.875Z,102148.66
2023-02-14T17:07:08.018Z,102148.59
2023-02-14T17:09:40.064Z,102145.63
2023-02-14T17:12:16.136Z,102154.13
2023-02-14T17:14:47.059Z,102151.72
2023-02-14T17:17:14.107Z,102156.41
2023-02-14T17:19:40.570Z,102149.69
2023-02-14T17:22:07.758Z,102148.16
2023-02-14T17:24:34.235Z,102150.56
2023-02-14T17:27:00.736Z,102144.47
2023-02-14T17:29:27.192Z,102149.53
2023-02-14T17:31:53.775Z,102149.06
2023-02-14T17:34:20.301Z,102155.81
2023-02-14T17:36:46.987Z,102151.13
2023-02-14T17:39:14.774Z,102163.03
2023-02-14T17:41:41.263Z,102147.59
2023-02-14T17:44:07.712Z,102148.31
2023-02-14T17:46:34.222Z,102146.09
2023-02-14T17:49:03.876Z,102150.13
2023-02-14T17:51:30.408Z,102143.56
2023-02-14T17:53:58.986Z,102143.69
2023-02-14T17:56:26.865Z,102152.22
2023-02-14T17:58:55.222Z,102150.00
2023-02-14T18:01:25.291Z,102149.06
2023-02-14T18:03:53.846Z,102148.50
2023-02-14T18:06:21.383Z,102146.28
2023-02-14T18:08:51.790Z,102150.69
2023-02-14T18:11:20.412Z,102157.22
2023-02-14T18:13:47.352Z,102152.94
2023-02-14T18:16:16.146Z,102145.75
2023-02-14T18:18:42.627Z,102151.38
2023-02-14T18:21:11.906Z,102146.75
2023-02-14T18:23:38.912Z,102144.47
2023-02-14T18:26:10.392Z,102138.78
2023-02-14T18:28:36.973Z,102139.25
2023-02-14T18:31:04.990Z,102133.56
2023-02-14T18:33:31.533Z,102129.44
2023-02-14T18:36:00.793Z,102131.84
2023-02-14T18:38:27.408Z,102124.00
2023-02-14T18:40:53.864Z,102122.84
2023-02-14T18:43:20.380Z,102130.16
2023-02-14T18:45:47.142Z,102129.16
2023-02-14T18:48:13.623Z,102133.69
2023-02-14T18:50:40.072Z,102128.59
2023-02-14T18:53:06.641Z,102137.66
2023-02-14T18:55:33.451Z,102125.94
2023-02-14T18:57:59.858Z,102120.09
2023-02-14T19:00:27.185Z,102119.28
2023-02-14T19:02:53.611Z,102104.22
2023-02-14T19:05:20.088Z,102107.78
2023-02-14T19:07:46.546Z,102109.66
2023-02-14T19:10:13.099Z,102109.53
2023-02-14T19:12:39.942Z,102106.03
2023-02-14T19:15:06.501Z,102106.25
2023-02-14T19:17:33.985Z,102101.69
2023-02-14T19:20:00.589Z,102102.72
2023-02-14T19:22:27.079Z,102096.38
2023-02-14T19:24:53.831Z,102095.38
2023-02-14T19:27:21.673Z,102088.03
2023-02-14T19:29:48.343Z,102101.28
2023-02-14T19:32:14.831Z,102084.63
2023-02-14T19:34:41.395Z,102095.94
2023-02-14T19:37:07.946Z,102094.94
2023-02-14T19:39:34.451Z,102091.25
2023-02-14T19:42:01.226Z,102093.78
2023-02-14T19:44:29.312Z,102087.19
2023-02-14T19:46:56.677Z,102081.38
2023-02-14T19:49:23.452Z,102089.44
2023-02-14T19:51:51.297Z,102081.88
2023-02-14T19:54:18.839Z,102078.47
2023-02-14T19:56:46.775Z,102074.66
2023-02-14T19:59:19.994Z,102082.34
2023-02-14T20:01:52.154Z,102077.31
2023-02-14T20:04:22.321Z,102075.97
2023-02-14T20:06:49.827Z,102067.94
2023-02-14T20:09:17.466Z,102070.13
2023-02-14T20:11:50.204Z,102070.63
2023-02-14T20:14:28.464Z,102065.59
2023-02-14T20:16:56.833Z,102069.75
2023-02-14T20:19:27.009Z,102070.28
2023-02-14T20:21:54.255Z,102066.38
2023-02-14T20:24:23.444Z,102064.22
2023-02-14T20:26:51.864Z,102064.53
2023-02-14T20:29:19.826Z,102071.38
2023-02-14T20:31:51.157Z,102055.31
2023-02-14T20:34:19.102Z,102064.16
2023-02-14T20:36:52.942Z,102061.16
2023-02-14T20:39:21.469Z,102061.47
2023-02-14T20:41:50.999Z,102053.09
2023-02-14T20:44:21.955Z,102055.94
2023-02-14T20:46:51.934Z,102048.41
2023-02-14T20:49:19.857Z,102041.69
2023-02-14T20:51:49.667Z,102044.03
2023-02-14T20:54:18.124Z,102038.97
2023-02-14T20:56:45.504Z,102045.34
2023-02-14T20:59:12.140Z,102041.00
2023-02-14T21:01:39.181Z,102041.97
2023-02-14T21:04:05.966Z,102037.63
2023-02-14T21:06:34.163Z,102044.50
2023-02-14T21:09:01.263Z,102048.31
2023-02-14T21:11:27.981Z,102041.97
2023-02-14T21:13:59.647Z,102045.09
2023-02-14T21:16:27.288Z,102046.88
2023-02-14T21:18:58.989Z,102050.53
2023-02-14T21:21:34.953Z,102042.00
2023-02-14T21:24:13.212Z,102040.84
2023-02-14T21:26:40.192Z,102038.97
2023-02-14T21:29:07.561Z,102046.19
2023-02-14T21:31:34.792Z,102040.81
2023-02-14T21:34:02.591Z,102044.31
2023-02-14T21:36:31.405Z,102041.00
2023-02-14T21:38:59.018Z,102027.78
2023-02-14T21:44:01.362Z,102032.28
2023-02-14T21:46:31.169Z,102032.28
2023-02-14T21:49:18.691Z,102028.94
2023-02-14T21:51:46.222Z,102032.28
2023-02-14T21:54:13.567Z,102030.63
2023-02-14T21:56:41.488Z,102028.59
2023-02-14T21:59:09.548Z,102022.44
2023-02-14T22:01:39.248Z,102020.25
2023-02-14T22:04:09.183Z,102026.28
2023-02-14T22:06:38.156Z,102029.66
2023-02-14T22:09:08.607Z,102035.19
2023-02-14T22:11:35.246Z,102024.50
2023-02-14T22:14:02.223Z,102027.66
2023-02-14T22:16:29.407Z,102023.00
2023-02-14T22:18:55.972Z,102029.00
2023-02-14T22:21:25.661Z,102016.84
2023-02-14T22:23:53.067Z,102009.63
2023-02-14T22:26:19.471Z,102014.16
2023-02-14T22:28:47.990Z,102013.47
2023-02-14T22:31:16.424Z,102011.81
2023-02-14T22:33:43.569Z,102007.31
2023-02-14T22:36:10.729Z,102006.16
2023-02-14T22:38:38.157Z,102004.28
2023-02-14T22:41:13.132Z,102000.97
2023-02-14T22:43:40.391Z,102005.16
2023-02-14T22:46:10.267Z,102000.44
2023-02-14T22:48:37.620Z,102003.63
2023-02-14T22:51:21.168Z,102006.31
2023-02-14T22:53:49.158Z,102012.31
2023-02-14T22:56:16.849Z,102003.47
2023-02-14T22:58:44.569Z,102003.09
2023-02-14T23:01:18.742Z,101997.59
2023-02-14T23:03:46.217Z,102001.06
2023-02-14T23:06:13.798Z,102008.75
2023-02-14T23:08:45.764Z,102003.41
2023-02-14T23:11:15.473Z,102002.22
2023-02-14T23:14:00.803Z,102002.72
2023-02-14T23:16:45.983Z,102007.22
2023-02-14T23:19:35.920Z,102004.53
2023-02-14T23:22:08.400Z,102007.03
2023-02-14T23:24:35.408Z,101999.34
2023-02-14T23:27:02.423Z,102007.22
2023-02-14T23:29:29.618Z,102003.38
2023-02-14T23:31:56.404Z,101998.84
2023-02-14T23:34:26.327Z,101998.28
2023-02-14T23:36:52.960Z,101994.38
2023-02-14T23:39:19.557Z,101977.50
2023-02-14T23:41:48.755Z,101979.84
2023-02-14T23:44:21.463Z,101985.53
2023-02-14T23:46:49.684Z,101973.34
2023-02-14T23:49:16.950Z,101962.47
2023-02-14T23:51:45.187Z,101951.41
2023-02-14T23:54:11.876Z,101953.09
2023-02-14T23:56:38.807Z,101960.78
2023-02-14T23:59:07.038Z,101956.47
